Time;durP1;ratioP1;P1;durP2;ratioP2;P2;SDS_P1;SDS_P2;PMS_P1;PMS_P2;Temp;Humidity;BMP_temperature;BMP_pressure;BME280_temperature;BME280_humidity;BME280_pressure;Samples;Min_cycle;Max_cycle;Signal;HPM_P1;HPM_P2
2023/12/02 00:01:37;;;;;;;21.25;19.55;;;;;;;-141.02;98.49;38946.84;5071550;28;20285;-74
2023/12/02 00:04:07;;;;;;;23.00;21.20;;;;;;;-141.02;99.42;38962.19;5071837;28;20190;-74
2023/12/02 00:06:36;;;;;;;21.33;19.63;;;;;;;-141.02;99.91;38987.13;5071484;28;20286;-74
2023/12/02 00:09:38;;;;;;;19.65;18.05;;;;;;;-141.02;100.00;38975.63;5071456;28;20230;-74
2023/12/02 00:12:05;;;;;;;19.83;18.23;;;;;;;-141.02;100.00;38973.69;5071266;28;20763;-74
2023/12/02 00:14:32;;;;;;;22.00;20.30;;;;;;;-141.02;100.00;38948.78;5071810;28;20297;-74
2023/12/02 00:16:59;;;;;;;28.50;26.48;;;;;;;-141.02;100.00;38952.59;5075313;28;20258;-74
2023/12/02 00:19:26;;;;;;;27.33;25.38;;;;;;;-141.02;99.94;38967.94;5075648;28;20198;-74
2023/12/02 00:21:55;;;;;;;22.60;20.80;;;;;;;-141.02;97.35;38948.78;5075433;28;20283;-74
2023/12/02 00:24:22;;;;;;;30.95;28.65;;;;;;;-141.02;97.00;38962.19;5075073;28;20652;-74
2023/12/02 00:27:12;;;;;;;31.52;29.17;;;;;;;-141.02;97.31;38952.59;5075001;28;20755;-74
2023/12/02 00:29:39;;;;;;;23.05;21.15;;;;;;;-141.02;97.45;38960.28;5075269;28;20222;-74
2023/12/02 00:32:07;;;;;;;20.20;18.50;;;;;;;-141.02;99.00;38952.59;5074978;28;20281;-74
2023/12/02 00:34:33;;;;;;;25.80;23.80;;;;;;;-141.02;99.25;38981.38;5074852;28;20285;-74
2023/12/02 00:37:00;;;;;;;23.58;21.67;;;;;;;-141.02;98.98;38948.78;5075178;28;20205;-74
2023/12/02 00:39:28;;;;;;;22.52;20.63;;;;;;;-141.02;97.21;38954.53;5075138;28;20190;-74
2023/12/02 00:41:55;;;;;;;30.50;28.20;;;;;;;-141.02;95.77;38933.44;5075108;28;20198;-74
2023/12/02 00:44:23;;;;;;;32.33;29.92;;;;;;;-141.02;96.03;38967.94;5074774;28;20289;-74
2023/12/02 00:46:51;;;;;;;24.67;22.58;;;;;;;-141.02;91.16;38927.69;5074639;28;20338;-74
2023/12/02 00:49:18;;;;;;;23.75;21.65;;;;;;;-141.02;90.20;38943.03;5074770;28;20230;-74
2023/12/02 00:51:44;;;;;;;22.08;20.08;;;;;;;-141.02;92.08;38956.44;5074552;28;20217;-74
2023/12/02 00:54:11;;;;;;;22.48;20.48;;;;;;;-141.02;89.53;38941.09;5074649;28;20277;-74
2023/12/02 00:56:38;;;;;;;25.30;23.13;;;;;;;-141.02;90.99;38946.84;5074539;28;20281;-74
2023/12/02 00:59:05;;;;;;;25.27;23.08;;;;;;;-141.02;87.73;38954.53;5074447;28;20286;-74
2023/12/02 01:01:33;;;;;;;33.30;30.70;;;;;;;-141.02;85.99;38950.69;5074777;28;20222;-74
2023/12/02 01:04:03;;;;;;;27.52;25.13;;;;;;;-141.02;85.55;38929.59;5074139;28;20709;-74
2023/12/02 01:06:30;;;;;;;26.45;24.15;;;;;;;-141.02;84.91;38967.94;5074670;28;20695;-74
2023/12/02 01:08:58;;;;;;;25.08;22.88;;;;;;;-141.02;85.47;38948.78;5074219;28;20318;-74
2023/12/02 01:11:25;;;;;;;23.25;21.15;;;;;;;-141.02;84.89;38979.47;5074294;28;20230;-74
2023/12/02 01:13:52;;;;;;;23.45;21.35;;;;;;;-141.02;85.60;38962.19;5074228;28;20241;-74
2023/12/02 01:16:19;;;;;;;27.15;24.75;;;;;;;-141.02;84.45;38944.94;5074234;28;20262;-74
2023/12/02 01:18:47;;;;;;;26.20;23.90;;;;;;;-141.02;84.90;38956.44;5073839;28;20205;-74
2023/12/02 01:21:14;;;;;;;26.70;24.40;;;;;;;-141.02;84.38;38960.28;5074321;28;20277;-74
2023/12/02 01:23:41;;;;;;;27.52;25.13;;;;;;;-141.02;85.72;38958.38;5074199;28;20290;-74
2023/12/02 01:26:08;;;;;;;35.80;33.03;;;;;;;-141.02;85.59;38948.78;5073800;28;20191;-74
2023/12/02 01:28:35;;;;;;;32.83;30.23;;;;;;;-141.02;86.34;38966.03;5073866;28;20332;-74
2023/12/02 01:31:02;;;;;;;24.63;22.52;;;;;;;-141.02;86.79;38962.19;5073877;28;20679;-74
2023/12/02 01:33:29;;;;;;;26.90;24.60;;;;;;;-141.02;87.33;38977.53;5074152;28;20201;-74
2023/12/02 01:36:05;;;;;;;25.10;22.80;;;;;;;-141.02;87.06;38960.28;5073556;28;20690;-74
2023/12/02 01:38:32;;;;;;;38.85;35.95;;;;;;;-141.02;85.62;38969.88;5074275;28;20226;-75
2023/12/02 01:40:59;;;;;;;24.13;21.92;;;;;;;-141.02;83.21;38985.22;5074024;28;20629;-74
2023/12/02 01:43:32;;;;;;;27.08;24.70;;;;;;;-141.02;82.64;38960.28;5073953;28;20229;-74
2023/12/02 01:45:59;;;;;;;26.92;24.52;;;;;;;-141.02;82.94;38960.28;5073394;28;20285;-74
2023/12/02 01:48:29;;;;;;;27.17;24.77;;;;;;;-141.02;82.66;38964.13;5073495;28;20775;-74
2023/12/02 01:50:57;;;;;;;27.20;24.80;;;;;;;-141.02;84.05;38948.78;5073812;28;20274;-74
2023/12/02 01:53:25;;;;;;;27.67;25.27;;;;;;;-141.02;84.65;38990.97;5073527;28;20581;-74
2023/12/02 01:55:53;;;;;;;26.80;24.50;;;;;;;-141.02;84.98;38979.47;5073330;28;20194;-74
2023/12/02 01:58:20;;;;;;;23.60;21.40;;;;;;;-141.02;83.68;38990.97;5074017;28;20297;-74
2023/12/02 02:00:47;;;;;;;23.73;21.52;;;;;;;-141.02;82.37;38944.94;5073598;28;20297;-74
2023/12/02 02:03:14;;;;;;;28.30;25.80;;;;;;;-141.02;78.34;38990.97;5073551;28;20222;-74
2023/12/02 02:05:41;;;;;;;28.58;25.98;;;;;;;-141.02;77.39;38948.78;5073249;28;20196;-74
2023/12/02 02:08:08;;;;;;;39.47;36.45;;;;;;;-141.02;77.76;38964.13;5072992;28;20226;-74
2023/12/02 02:10:36;;;;;;;28.25;25.75;;;;;;;-141.02;77.50;38969.88;5073395;28;20205;-74
2023/12/02 02:13:03;;;;;;;36.92;33.92;;;;;;;-141.02;76.22;38979.47;5072712;28;20308;-74
2023/12/02 02:15:30;;;;;;;36.63;33.70;;;;;;;-141.02;76.99;38944.94;5072813;28;20230;-74
2023/12/02 02:17:57;;;;;;;24.75;22.45;;;;;;;-141.02;78.01;38975.63;5072933;28;20285;-74
2023/12/02 02:20:24;;;;;;;24.73;22.42;;;;;;;-141.02;77.99;38964.13;5073173;28;20205;-74
2023/12/02 02:22:52;;;;;;;27.52;25.05;;;;;;;-141.02;76.84;39000.53;5072835;28;20655;-74
2023/12/02 02:25:19;;;;;;;27.02;24.63;;;;;;;-141.02;77.58;38956.44;5072743;28;20290;-74
2023/12/02 02:27:46;;;;;;;27.98;25.48;;;;;;;-141.02;77.76;38967.94;5072705;28;20707;-74
2023/12/02 02:30:13;;;;;;;27.52;25.02;;;;;;;-141.02;77.50;38967.94;5072695;28;20230;-74
2023/12/02 02:32:40;;;;;;;27.33;24.90;;;;;;;-141.02;78.55;38956.44;5072568;28;20202;-74
2023/12/02 02:35:08;;;;;;;28.08;25.58;;;;;;;-141.02;78.18;38975.63;5072774;28;20197;-74
2023/12/02 02:37:35;;;;;;;26.33;23.92;;;;;;;-141.02;79.12;38979.47;5071766;28;20686;-73
2023/12/02 02:40:05;;;;;;;24.88;22.58;;;;;;;-141.02;79.95;39002.47;5072846;28;20204;-74
2023/12/02 02:42:32;;;;;;;33.35;30.65;;;;;;;-141.02;80.71;38967.94;5072785;28;20191;-74
2023/12/02 02:45:06;;;;;;;27.45;25.05;;;;;;;-141.02;80.54;38987.13;5072447;28;20198;-74
2023/12/02 02:47:33;;;;;;;27.80;25.33;;;;;;;-141.02;82.01;38971.78;5072359;28;20222;-73
2023/12/02 02:50:00;;;;;;;27.83;25.33;;;;;;;-141.02;82.27;38987.13;5072683;28;20281;-74
2023/12/02 02:52:27;;;;;;;26.15;23.85;;;;;;;-141.02;82.46;38990.97;5072405;28;20285;-74
2023/12/02 02:54:54;;;;;;;27.17;24.77;;;;;;;-141.02;82.90;38958.38;5072287;28;20289;-74
2023/12/02 02:57:23;;;;;;;24.30;22.00;;;;;;;-141.02;83.02;38967.94;5072585;28;20277;-73
2023/12/02 02:59:50;;;;;;;31.23;28.63;;;;;;;-141.02;82.75;38967.94;5072180;28;20233;-74
2023/12/02 03:02:17;;;;;;;36.70;33.80;;;;;;;-141.02;82.09;38967.94;5071969;28;20198;-73
2023/12/02 03:04:43;;;;;;;26.05;23.70;;;;;;;-141.02;82.92;38971.78;5072465;28;20198;-73
2023/12/02 03:07:10;;;;;;;27.75;25.25;;;;;;;-141.02;80.45;38967.94;5072607;28;20639;-74
2023/12/02 03:09:37;;;;;;;31.73;29.05;;;;;;;-141.02;79.11;38985.22;5072039;28;20607;-74
2023/12/02 03:12:07;;;;;;;28.70;26.17;;;;;;;-141.02;78.80;38998.63;5072302;28;20744;-74
2023/12/02 03:14:41;;;;;;;26.08;23.67;;;;;;;-141.02;76.31;39010.13;5072119;28;20660;-73
2023/12/02 03:17:08;;;;;;;25.67;23.27;;;;;;;-141.02;77.59;38983.28;5072622;28;20245;-74
2023/12/02 03:19:35;;;;;;;25.55;23.15;;;;;;;-141.02;77.85;38983.28;5072009;28;20293;-74
2023/12/02 03:22:03;;;;;;;29.42;26.83;;;;;;;-141.02;78.17;38979.47;5071997;28;20751;-74
2023/12/02 03:24:36;;;;;;;28.30;25.70;;;;;;;-141.02;79.04;38948.78;5072250;28;20229;-74
2023/12/02 03:27:06;;;;;;;27.58;25.08;;;;;;;-141.02;79.48;38964.13;5072271;28;20281;-74
2023/12/02 03:29:39;;;;;;;29.27;26.67;;;;;;;-141.02;79.93;39017.81;5071799;28;20222;-74
2023/12/02 03:32:08;;;;;;;29.70;27.13;;;;;;;-141.02;80.08;38971.78;5072174;28;20309;-74
2023/12/02 03:34:36;;;;;;;30.90;28.20;;;;;;;-141.02;79.85;38967.94;5072401;28;20198;-74
2023/12/02 03:37:07;;;;;;;36.00;33.10;;;;;;;-141.02;79.86;38987.13;5071884;28;20687;-74
2023/12/02 03:39:35;;;;;;;26.10;23.70;;;;;;;-141.02;78.94;38983.28;5071834;28;20305;-74
2023/12/02 03:42:06;;;;;;;26.38;23.98;;;;;;;-141.02;77.45;38979.47;5071805;28;20289;-74
2023/12/02 03:44:36;;;;;;;37.15;34.15;;;;;;;-141.02;76.98;38944.94;5071667;28;20201;-74
2023/12/02 03:47:07;;;;;;;34.80;31.90;;;;;;;-141.02;75.65;38971.78;5071853;28;20301;-74
2023/12/02 03:49:37;;;;;;;28.95;26.35;;;;;;;-141.02;75.95;38969.88;5073319;28;20793;-74
2023/12/02 03:52:05;;;;;;;28.08;25.58;;;;;;;-141.02;76.45;38977.53;5075802;28;20200;-74
2023/12/02 03:54:32;;;;;;;28.50;25.90;;;;;;;-141.02;78.43;38975.63;5075743;28;20328;-74
2023/12/02 03:56:59;;;;;;;30.27;27.50;;;;;;;-141.02;79.43;38990.97;5075603;28;20197;-74
2023/12/02 03:59:26;;;;;;;25.60;23.20;;;;;;;-141.02;80.37;38979.47;5075962;28;20202;-74
2023/12/02 04:01:53;;;;;;;33.88;31.05;;;;;;;-141.02;80.32;38977.53;5075737;28;20201;-74
2023/12/02 04:04:20;;;;;;;46.22;42.72;;;;;;;-141.02;81.21;38975.63;5075534;28;20226;-74
2023/12/02 04:06:48;;;;;;;25.90;23.50;;;;;;;-141.02;79.93;38987.13;5075433;28;20615;-74
2023/12/02 04:09:16;;;;;;;28.33;25.77;;;;;;;-141.02;78.56;38983.28;5075589;28;20236;-74
2023/12/02 04:11:45;;;;;;;35.47;32.53;;;;;;;-141.02;78.66;38990.97;5075663;28;20195;-74
2023/12/02 04:14:12;;;;;;;26.90;24.40;;;;;;;-141.02;78.08;39006.31;5075306;28;20653;-74
2023/12/02 04:16:40;;;;;;;28.58;25.98;;;;;;;-141.02;78.02;38967.94;5075137;28;20314;-74
2023/12/02 04:19:07;;;;;;;28.90;26.30;;;;;;;-141.02;78.60;38983.28;5075437;28;20191;-74
2023/12/02 04:21:35;;;;;;;32.28;29.58;;;;;;;-141.02;77.60;38952.59;5075434;28;20226;-74
2023/12/02 04:24:04;;;;;;;28.02;25.52;;;;;;;-141.02;78.67;39010.13;5074920;28;20195;-74
2023/12/02 04:26:31;;;;;;;28.00;25.50;;;;;;;-141.02;78.09;39002.47;5075331;28;20195;-74
2023/12/02 04:28:58;;;;;;;34.72;31.92;;;;;;;-141.02;78.83;38983.28;5075244;28;20242;-74
2023/12/02 04:31:25;;;;;;;29.95;27.35;;;;;;;-141.02;77.84;39004.38;5075284;28;20612;-74
2023/12/02 04:33:52;;;;;;;27.60;25.10;;;;;;;-141.02;77.79;38987.13;5074957;28;20694;-74
2023/12/02 04:36:19;;;;;;;24.40;22.10;;;;;;;-141.02;77.52;38967.94;5074914;28;20676;-74
2023/12/02 04:38:46;;;;;;;31.67;28.98;;;;;;;-141.02;77.56;38967.94;5074905;28;20233;-74
2023/12/02 04:41:15;;;;;;;25.95;23.55;;;;;;;-141.02;77.07;38996.72;5075075;28;20281;-74
2023/12/02 04:43:42;;;;;;;26.33;23.92;;;;;;;-141.02;76.39;38956.44;5074759;28;20234;-74
2023/12/02 04:46:09;;;;;;;36.42;33.42;;;;;;;-141.02;75.56;38994.78;5074585;28;20282;-74
2023/12/02 04:48:35;;;;;;;39.67;36.47;;;;;;;-141.02;75.04;38989.03;5074898;28;20218;-74
2023/12/02 04:51:03;;;;;;;27.98;25.45;;;;;;;-141.02;75.71;38987.13;5075226;28;20198;-74
2023/12/02 04:53:30;;;;;;;28.90;26.30;;;;;;;-141.02;74.96;38967.94;5074410;28;20708;-74
2023/12/02 04:55:57;;;;;;;32.70;29.90;;;;;;;-141.02;76.23;38979.47;5074804;28;20206;-74
2023/12/02 04:58:25;;;;;;;24.45;22.15;;;;;;;-141.02;76.28;38977.53;5074894;28;20230;-74
2023/12/02 05:00:53;;;;;;;27.38;24.88;;;;;;;-141.02;77.47;38989.03;5073599;28;20282;-74
2023/12/02 05:03:20;;;;;;;35.25;32.33;;;;;;;-141.02;76.60;38994.78;5074742;28;20210;-75
2023/12/02 05:05:47;;;;;;;37.65;34.58;;;;;;;-141.02;77.49;38966.03;5074423;28;20245;-74
2023/12/02 05:08:14;;;;;;;26.77;24.38;;;;;;;-141.02;76.24;38998.63;5074809;28;20201;-74
2023/12/02 05:10:41;;;;;;;26.30;23.90;;;;;;;-141.02;77.00;38967.94;5074326;28;20285;-74
2023/12/02 05:13:08;;;;;;;32.38;29.58;;;;;;;-141.02;76.65;39010.13;5074169;28;20197;-74
2023/12/02 05:15:36;;;;;;;23.83;21.45;;;;;;;-141.02;75.81;39013.97;5074046;28;20321;-74
2023/12/02 05:18:03;;;;;;;26.73;24.23;;;;;;;-141.02;75.01;38994.78;5074484;28;20214;-74
2023/12/02 05:20:30;;;;;;;26.80;24.40;;;;;;;-141.02;73.37;38975.63;5074450;28;20201;-74
2023/12/02 05:22:57;;;;;;;25.45;23.05;;;;;;;-141.02;74.49;39006.31;5074412;28;20289;-74
2023/12/02 05:25:24;;;;;;;25.00;22.70;;;;;;;-141.02;74.50;39010.13;5073768;28;20194;-74
2023/12/02 05:27:51;;;;;;;26.23;23.73;;;;;;;-141.02;74.16;39035.06;5074297;28;20198;-74
2023/12/02 05:30:18;;;;;;;25.35;22.95;;;;;;;-141.02;74.19;39067.66;5074121;28;20222;-75
2023/12/02 05:32:47;;;;;;;24.05;21.65;;;;;;;-141.02;75.90;38948.78;5074196;28;20190;-74
2023/12/02 05:35:14;;;;;;;23.95;21.63;;;;;;;-141.02;75.79;39132.88;5074171;28;20609;-74
2023/12/02 05:37:41;;;;;;;27.15;24.55;;;;;;;-141.02;76.91;39175.06;5074138;28;20274;-74
2023/12/02 05:40:10;;;;;;;28.38;25.77;;;;;;;-141.02;77.10;39247.91;5073470;28;20234;-74
2023/12/02 05:42:37;;;;;;;25.88;23.40;;;;;;;-141.02;76.89;39297.78;5073606;28;20739;-74
2023/12/02 05:45:05;;;;;;;33.97;31.08;;;;;;;-141.02;76.78;39403.25;5073866;28;20654;-74
2023/12/02 05:47:32;;;;;;;32.20;29.40;;;;;;;-141.02;76.67;39518.31;5073809;28;20228;-74
2023/12/02 05:50:01;;;;;;;31.15;28.40;;;;;;;-141.02;75.63;39658.34;5073508;28;20230;-74
2023/12/02 05:52:28;;;;;;;26.98;24.38;;;;;;;-141.02;73.98;39631.47;5073835;28;20626;-74
2023/12/02 05:54:56;;;;;;;28.35;25.75;;;;;;;-141.02;74.39;39493.41;5073725;28;20257;-74
2023/12/02 05:57:22;;;;;;;34.67;31.77;;;;;;;-141.02;74.11;39435.88;5073394;28;20199;-74
2023/12/02 05:59:51;;;;;;;27.17;24.58;;;;;;;-141.02;74.66;39424.34;5073255;28;20201;-74
2023/12/02 06:02:18;;;;;;;27.70;25.10;;;;;;;-141.02;73.92;39420.53;5073544;28;20199;-74
2023/12/02 06:04:45;;;;;;;27.65;25.05;;;;;;;-141.02;71.97;39401.34;5073545;28;20201;-74
2023/12/02 06:07:13;;;;;;;25.58;23.08;;;;;;;-141.02;72.19;39422.44;5073534;28;20198;-75
2023/12/02 06:09:42;;;;;;;25.20;22.70;;;;;;;-141.02;72.22;39443.53;5073355;28;20309;-74
2023/12/02 06:12:09;;;;;;;25.33;22.83;;;;;;;-141.02;72.47;39447.38;5073255;28;20643;-75
2023/12/02 06:14:36;;;;;;;25.08;22.58;;;;;;;-141.02;72.28;39474.22;5073088;28;20285;-74
2023/12/02 06:17:04;;;;;;;25.23;22.73;;;;;;;-141.02;72.47;39503.00;5072980;28;20230;-74
2023/12/02 06:19:31;;;;;;;25.70;23.10;;;;;;;-141.02;72.64;39560.53;5073882;28;20240;-74
2023/12/02 06:21:58;;;;;;;24.88;22.48;;;;;;;-141.02;73.35;39583.53;5072898;28;20629;-74
2023/12/02 06:24:26;;;;;;;25.40;22.90;;;;;;;-141.02;73.48;39623.81;5073001;28;20282;-74
2023/12/02 06:26:53;;;;;;;23.30;21.00;;;;;;;-141.02;72.66;39689.03;5072815;28;20196;-74
2023/12/02 06:29:20;;;;;;;23.33;21.02;;;;;;;-141.02;72.57;39738.88;5072623;28;20226;-74
2023/12/02 06:31:50;;;;;;;26.02;23.52;;;;;;;-141.02;72.51;39788.75;5072496;28;20197;-74
2023/12/02 06:34:18;;;;;;;26.70;24.10;;;;;;;-141.02;71.62;39763.81;5072888;28;20587;-74
2023/12/02 06:36:45;;;;;;;26.27;23.67;;;;;;;-141.02;71.17;39792.59;5072875;28;20660;-74
2023/12/02 06:39:12;;;;;;;26.02;23.42;;;;;;;-141.02;71.40;39819.44;5072596;28;20201;-74
2023/12/02 06:41:41;;;;;;;25.05;22.55;;;;;;;-141.02;71.16;39815.59;5072726;28;20197;-74
2023/12/02 06:44:09;;;;;;;23.60;21.15;;;;;;;-141.02;70.62;39836.72;5072877;28;20232;-74
2023/12/02 06:46:36;;;;;;;23.63;21.20;;;;;;;-141.02;71.43;39840.53;5073330;28;20663;-74
2023/12/02 06:49:03;;;;;;;26.38;23.77;;;;;;;-141.02;70.14;39844.38;5072656;28;20329;-74
2023/12/02 06:51:30;;;;;;;26.70;24.00;;;;;;;-141.02;71.55;39861.66;5072731;28;20210;-74
2023/12/02 06:53:57;;;;;;;26.15;23.55;;;;;;;-141.02;71.41;39915.34;5072368;28;20195;-74
2023/12/02 06:56:26;;;;;;;26.35;23.75;;;;;;;-141.02;71.46;39869.31;5072340;28;20198;-74
2023/12/02 06:58:54;;;;;;;26.00;23.40;;;;;;;-141.02;71.53;39552.84;5072298;28;20198;-74
2023/12/02 07:01:26;;;;;;;25.95;23.45;;;;;;;-141.02;70.88;39892.34;5072546;28;20198;-74
2023/12/02 07:03:54;;;;;;;23.65;21.25;;;;;;;-141.02;71.61;39903.84;5072474;28;20202;-74
2023/12/02 07:06:21;;;;;;;23.73;21.25;;;;;;;-141.02;70.93;39877.00;5071916;28;20575;-74
2023/12/02 07:08:49;;;;;;;25.88;23.38;;;;;;;-141.02;70.07;39875.06;5072403;28;20202;-75
2023/12/02 07:11:17;;;;;;;26.38;23.77;;;;;;;-141.02;69.32;39911.50;5072130;28;20234;-74
2023/12/02 07:13:44;;;;;;;26.10;23.60;;;;;;;-141.02;68.79;39957.53;5072392;28;20201;-74
2023/12/02 07:16:13;;;;;;;26.00;23.40;;;;;;;-141.02;69.02;39938.38;5071972;28;20236;-74
2023/12/02 07:18:40;;;;;;;26.20;23.60;;;;;;;-141.02;69.82;39970.97;5072059;28;20197;-74
2023/12/02 07:21:09;;;;;;;24.30;21.80;;;;;;;-141.02;69.69;39969.06;5072302;28;20205;-74
2023/12/02 07:23:36;;;;;;;26.13;23.55;;;;;;;-141.02;69.37;39999.75;5071295;28;20248;-74
2023/12/02 07:26:03;;;;;;;26.42;23.77;;;;;;;-141.02;68.25;40068.78;5072807;28;20260;-74
2023/12/02 07:28:30;;;;;;;50.90;46.33;;;;;;;-141.02;67.58;40082.22;5071920;28;20201;-74
2023/12/02 07:30:57;;;;;;;25.77;23.17;;;;;;;-141.02;68.56;40111.00;5072184;28;20323;-74
2023/12/02 07:33:25;;;;;;;25.60;23.10;;;;;;;-141.02;68.26;40132.09;5072176;28;20220;-75
2023/12/02 07:35:53;;;;;;;26.27;23.67;;;;;;;-141.02;67.70;39953.72;5071863;28;20286;-75
2023/12/02 07:38:19;;;;;;;31.75;28.85;;;;;;;-141.02;67.86;40089.91;5072167;28;20236;-75
2023/12/02 07:40:46;;;;;;;34.85;31.92;;;;;;;-141.02;67.38;40111.00;5072129;28;20295;-75
2023/12/02 07:43:13;;;;;;;26.65;24.05;;;;;;;-141.02;67.29;40078.38;5071592;28;20277;-75
2023/12/02 07:45:41;;;;;;;25.98;23.42;;;;;;;-141.02;67.26;40064.97;5071702;28;20205;-74
2023/12/02 07:48:10;;;;;;;26.95;24.35;;;;;;;-141.02;67.53;40089.91;5071776;28;20200;-74
2023/12/02 07:50:39;;;;;;;27.58;24.88;;;;;;;-141.02;67.02;40122.50;5071881;28;20226;-74
2023/12/02 07:53:06;;;;;;;27.73;25.13;;;;;;;-141.02;67.75;40103.31;5072062;28;20283;-74
2023/12/02 07:55:33;;;;;;;29.17;26.38;;;;;;;-141.02;67.13;40101.41;5071973;28;20277;-75
2023/12/02 07:58:00;;;;;;;43.85;40.35;;;;;;;-141.02;66.71;40099.50;5071907;28;20201;-74
2023/12/02 08:00:27;;;;;;;30.35;27.55;;;;;;;-141.02;66.10;40061.13;5071594;28;20560;-74
2023/12/02 08:02:54;;;;;;;27.00;24.40;;;;;;;-141.02;66.33;40057.28;5071856;28;20194;-74
2023/12/02 08:05:21;;;;;;;31.35;28.50;;;;;;;-141.02;66.28;40087.97;5071853;28;20680;-74
2023/12/02 08:07:51;;;;;;;31.08;28.27;;;;;;;-141.02;66.69;40043.88;5072063;28;20286;-74
2023/12/02 08:10:18;;;;;;;26.70;24.10;;;;;;;-141.02;66.96;40055.38;5071225;28;20704;-74
2023/12/02 08:12:44;;;;;;;26.70;24.10;;;;;;;-141.02;66.48;40049.63;5071466;28;20201;-74
2023/12/02 08:15:11;;;;;;;34.70;31.80;;;;;;;-141.02;66.37;40028.50;5071505;28;20278;-74
2023/12/02 08:17:38;;;;;;;30.02;27.33;;;;;;;-141.02;66.88;40001.66;5072055;28;20191;-74
2023/12/02 08:20:08;;;;;;;26.42;23.73;;;;;;;-141.02;65.38;40005.50;5071600;28;20317;-74
2023/12/02 08:22:35;;;;;;;32.47;29.48;;;;;;;-141.02;67.17;39995.91;5071656;28;20198;-74
2023/12/02 08:25:04;;;;;;;33.97;30.98;;;;;;;-141.02;67.28;39995.91;5071373;28;20278;-75
2023/12/02 08:27:31;;;;;;;26.85;24.23;;;;;;;-141.02;66.03;39999.75;5071420;28;20194;-75
2023/12/02 08:29:58;;;;;;;28.13;25.42;;;;;;;-141.02;65.08;40030.44;5071592;28;20238;-74
2023/12/02 08:32:25;;;;;;;27.70;24.95;;;;;;;-141.02;64.06;40018.94;5071630;28;20190;-74
2023/12/02 08:34:52;;;;;;;25.73;23.02;;;;;;;-141.02;63.46;40020.84;5071630;28;20282;-74
2023/12/02 08:37:19;;;;;;;24.42;21.83;;;;;;;-141.02;64.32;40047.69;5073883;28;20656;-74
2023/12/02 08:39:45;;;;;;;25.75;23.15;;;;;;;-141.02;64.44;40057.28;5075186;28;20273;-74
2023/12/02 08:42:15;;;;;;;28.80;26.00;;;;;;;-141.02;65.25;40064.97;5074824;28;20237;-74
2023/12/02 08:44:41;;;;;;;28.95;26.15;;;;;;;-141.02;65.15;40074.56;5074769;28;20205;-74
2023/12/02 08:47:09;;;;;;;31.20;28.20;;;;;;;-141.02;64.50;40091.81;5075309;28;20285;-74
2023/12/02 08:49:36;;;;;;;26.20;23.40;;;;;;;-141.02;65.08;40114.84;5074646;28;20224;-74
2023/12/02 08:52:03;;;;;;;25.63;22.92;;;;;;;-141.02;63.36;40084.16;5075098;28;20206;-74
2023/12/02 08:54:30;;;;;;;26.27;23.48;;;;;;;-141.02;62.88;40122.50;5075225;28;20374;-75
2023/12/02 08:56:57;;;;;;;36.92;33.40;;;;;;;-141.02;62.39;40114.84;5074867;28;20217;-74
2023/12/02 08:59:25;;;;;;;35.28;32.05;;;;;;;-141.02;61.92;40134.00;5074911;28;20277;-74
2023/12/02 09:01:52;;;;;;;37.45;34.13;;;;;;;-141.02;63.10;40178.13;5074186;28;20270;-75
2023/12/02 09:04:19;;;;;;;26.63;23.83;;;;;;;-141.02;62.42;40187.72;5074671;28;20201;-73
2023/12/02 09:06:46;;;;;;;25.35;22.75;;;;;;;-141.02;63.20;40218.41;5074726;28;20290;-74
2023/12/02 09:09:13;;;;;;;26.75;23.95;;;;;;;-141.02;63.68;40241.44;5074361;28;20233;-74
2023/12/02 09:11:41;;;;;;;25.60;22.90;;;;;;;-141.02;62.72;40291.31;5074639;28;20190;-74
2023/12/02 09:14:08;;;;;;;28.58;25.77;;;;;;;-141.02;62.74;40337.34;5074517;28;20211;-74
2023/12/02 09:16:37;;;;;;;28.88;26.02;;;;;;;-141.02;63.72;40352.69;5074244;28;20245;-74
2023/12/02 09:19:36;;;;;;;25.85;23.15;;;;;;;-141.02;63.69;40375.72;5074421;28;20277;-75
2023/12/02 09:22:06;;;;;;;25.17;22.48;;;;;;;-141.02;63.84;40379.56;5073875;28;20284;-74
2023/12/02 09:24:36;;;;;;;24.40;21.80;;;;;;;-141.02;64.42;40431.34;5074379;28;20226;-74
2023/12/02 09:27:05;;;;;;;27.00;24.30;;;;;;;-141.02;65.70;40479.31;5074093;28;20300;-74
2023/12/02 09:29:37;;;;;;;28.30;25.40;;;;;;;-141.02;65.20;40467.81;5074215;28;20198;-74
2023/12/02 09:32:30;;;;;;;28.23;25.42;;;;;;;-141.02;65.32;40502.34;5073667;28;20205;-74
2023/12/02 09:35:00;;;;;;;25.50;22.88;;;;;;;-141.02;65.43;40462.03;5074430;28;20187;-74
2023/12/02 09:38:00;;;;;;;27.08;24.48;;;;;;;-141.02;65.96;40494.66;5073781;28;20684;-74
2023/12/02 09:40:51;;;;;;;27.63;24.83;;;;;;;-141.02;65.32;40446.69;5073637;28;20195;-73
2023/12/02 09:43:26;;;;;;;29.42;26.52;;;;;;;-141.02;63.48;40427.50;5074292;28;20221;-74
2023/12/02 09:46:05;;;;;;;28.45;25.65;;;;;;;-141.02;63.85;40463.97;5074011;28;20310;-73
2023/12/02 09:48:37;;;;;;;29.30;26.40;;;;;;;-141.02;62.95;40437.09;5073246;28;20246;-74
2023/12/02 09:51:13;;;;;;;28.45;25.58;;;;;;;-141.02;62.80;40444.78;5073573;28;20301;-74
2023/12/02 09:53:51;;;;;;;27.30;24.50;;;;;;;-141.02;61.71;40435.19;5073849;28;20197;-73
2023/12/02 12:30:52;;;;;;;32.20;29.10;;;;;;;-141.02;59.20;40932.09;5130554;27;20536;-71
2023/12/02 12:33:20;;;;;;;35.13;31.92;;;;;;;-141.02;59.57;41091.34;5130607;28;20258;-71
2023/12/02 12:35:49;;;;;;;38.72;35.25;;;;;;;-141.02;57.32;41085.59;5130200;28;20192;-72
2023/12/02 12:38:16;;;;;;;36.95;33.53;;;;;;;-141.02;58.33;41131.63;5130380;28;20271;-72
2023/12/02 12:40:45;;;;;;;27.17;24.30;;;;;;;-141.02;58.08;41204.53;5130756;28;20231;-72
2023/12/02 12:43:13;;;;;;;36.05;31.42;;;;;;;-141.02;57.02;41225.66;5130324;27;20224;-71
2023/12/02 12:45:40;;;;;;;33.88;30.67;;;;;;;-141.02;57.57;41085.59;5130236;28;20634;-72
2023/12/02 12:48:10;;;;;;;28.30;25.40;;;;;;;-141.02;58.19;41170.00;5130038;28;20235;-71
2023/12/02 12:50:38;;;;;;;28.55;25.65;;;;;;;-141.02;58.39;41204.53;5129934;28;20680;-72
2023/12/02 12:53:10;;;;;;;39.55;36.15;;;;;;;-141.02;57.96;41285.13;5130094;28;20220;-72
2023/12/02 12:55:39;;;;;;;35.90;32.70;;;;;;;-141.02;58.50;41239.09;5130428;28;20189;-72
2023/12/02 12:58:08;;;;;;;38.38;35.05;;;;;;;-141.02;58.13;41312.00;5129567;28;20221;-73
2023/12/02 13:00:40;;;;;;;29.75;26.85;;;;;;;-141.02;57.69;41315.84;5130033;28;20211;-72
2023/12/02 13:03:44;;;;;;;39.75;36.38;;;;;;;-141.02;58.03;41315.84;5129628;28;20185;-72
2023/12/02 13:06:21;;;;;;;30.40;27.50;;;;;;;-141.02;58.04;40981.97;5113785;28;20275;-72
2023/12/02 13:09:09;;;;;;;29.58;26.67;;;;;;;-141.02;57.88;41193.03;5129959;27;20188;-72
2023/12/02 13:11:51;;;;;;;33.60;30.45;;;;;;;-141.02;58.76;41223.72;5129895;27;20268;-72
2023/12/02 13:14:23;;;;;;;35.65;32.45;;;;;;;-141.02;59.08;41123.97;5129188;28;20191;-72
2023/12/02 13:16:51;;;;;;;29.05;26.15;;;;;;;-141.02;58.74;41100.94;5129363;28;20181;-72
2023/12/02 13:19:19;;;;;;;28.42;25.63;;;;;;;-141.02;59.66;41179.59;5129497;28;20239;-72
2023/12/02 13:21:47;;;;;;;27.30;24.60;;;;;;;-141.02;59.80;41262.09;5129046;28;20206;-72
2023/12/02 13:24:18;;;;;;;51.58;47.58;;;;;;;-141.02;60.03;41365.72;5129291;28;20733;-73
2023/12/02 13:26:45;;;;;;;27.85;25.15;;;;;;;-141.02;59.36;41373.41;5129226;28;20225;-72
2023/12/02 13:29:17;;;;;;;27.77;25.08;;;;;;;-141.02;58.82;41342.69;5129179;28;20623;-72
2023/12/02 13:31:46;;;;;;;28.23;25.45;;;;;;;-141.02;59.31;41354.22;5115715;28;20189;-72
2023/12/02 13:34:30;;;;;;;33.53;30.63;;;;;;;-141.02;59.16;41377.25;5115399;28;20283;-72
2023/12/02 13:36:58;;;;;;;32.83;29.98;;;;;;;-141.02;59.12;41317.75;5115336;28;20678;-71
2023/12/02 13:39:33;;;;;;;25.40;22.90;;;;;;;-141.02;59.66;41354.22;5114109;28;20237;-72
2023/12/02 13:42:06;;;;;;;27.55;24.95;;;;;;;-141.02;58.72;41358.06;5115277;28;20723;-71
2023/12/02 13:44:35;;;;;;;27.50;24.90;;;;;;;-141.02;59.60;41327.34;5115267;28;20203;-72